Albany, Wisconsin
Current Conditions -  °F | °C
As of 7:35 PM on Wednesday 22 Oct 2014 (Local Time) from KEFT Reporting Station
Clear Clear  
Wind Chill: 42°   Ceiling: Unl
Heat Index: 46°   Visibility: 10mi
Dew Point: 34°   Wind: 8mph
Humidity: 62%   Direction: 160°SSE
Pressure: 30.22"   Gusts: NA
Location:  42.71°N, 89.44°W
Report Text: KEFT 230035Z AUTO 16007KT 10SM CLR 08/01 A3022 RMK AO2
Loading
Personal Weather Stations






























Interactive Weather Map
Tropical Storm Tracking
New forecast layout! Learn more

10-Day Weather Forecast

Advertisements
Track Severe Weather on mobile